Time;durP1;ratioP1;P1;durP2;ratioP2;P2;SDS_P1;SDS_P2;PMS_P1;PMS_P2;Temp;Humidity;BMP_temperature;BMP_pressure;BME280_temperature;BME280_humidity;BME280_pressure;Samples;Min_cycle;Max_cycle;Signal;HPM_P1;HPM_P2
2021/07/17 00:00:07;;;;;;;;;;;21.90;91.50;;;;;;5074965;28;20015;-75
2021/07/17 00:02:34;;;;;;;;;;;22.00;91.90;;;;;;5076815;28;19963;-75
2021/07/17 00:05:01;;;;;;;;;;;22.00;91.50;;;;;;5078971;28;19933;-74
2021/07/17 00:07:28;;;;;;;;;;;22.00;91.80;;;;;;5078725;28;20302;-75
2021/07/17 00:09:54;;;;;;;;;;;22.10;91.60;;;;;;5077811;28;19978;-73
2021/07/17 00:12:21;;;;;;;;;;;22.00;91.60;;;;;;5076078;28;19970;-74
2021/07/17 00:14:48;;;;;;;;;;;22.00;92.00;;;;;;5074981;28;19939;-74
2021/07/17 00:17:15;;;;;;;;;;;22.00;91.50;;;;;;5077676;28;20019;-74
2021/07/17 00:19:42;;;;;;;;;;;21.90;91.50;;;;;;5082100;28;19967;-74
2021/07/17 00:22:09;;;;;;;;;;;21.90;91.50;;;;;;5080044;28;19938;-74
2021/07/17 00:24:35;;;;;;;;;;;21.80;91.90;;;;;;5085068;28;20474;-74
2021/07/17 00:27:02;;;;;;;;;;;21.70;91.50;;;;;;5083011;28;19972;-75
2021/07/17 00:29:29;;;;;;;;;;;21.70;91.80;;;;;;5076274;27;20047;-74
2021/07/17 00:31:56;;;;;;;;;;;21.80;92.00;;;;;;5080059;28;20408;-74
2021/07/17 00:34:24;;;;;;;;;;;21.70;91.70;;;;;;5080800;28;19958;-74
2021/07/17 00:36:52;;;;;;;;;;;21.80;92.00;;;;;;5078029;28;20433;-74
2021/07/17 00:39:19;;;;;;;;;;;21.80;91.80;;;;;;5080082;28;19932;-74
2021/07/17 00:41:46;;;;;;;;;;;21.80;92.20;;;;;;5081094;28;19929;-73
2021/07/17 00:44:13;;;;;;;;;;;21.70;92.10;;;;;;5080205;28;20301;-73
2021/07/17 00:46:42;;;;;;;;;;;21.60;92.20;;;;;;5078695;27;20402;-73
2021/07/17 00:49:09;;;;;;;;;;;21.70;91.90;;;;;;5078946;28;19934;-72
2021/07/17 00:51:35;;;;;;;;;;;21.60;92.00;;;;;;5080675;28;20015;-72
2021/07/17 00:54:03;;;;;;;;;;;21.70;92.40;;;;;;5081263;28;20032;-73
2021/07/17 00:56:30;;;;;;;;;;;21.80;93.80;;;;;;5083714;28;20015;-73
2021/07/17 00:58:58;;;;;;;;;;;21.80;92.20;;;;;;5077474;28;19970;-73
2021/07/17 01:01:29;;;;;;;;;;;21.80;92.60;;;;;;5073872;27;19963;-73
2021/07/17 01:03:56;;;;;;;;;;;21.90;92.60;;;;;;5071033;28;19981;-72
2021/07/17 01:06:22;;;;;;;;;;;21.90;92.20;;;;;;5069848;28;20311;-72
2021/07/17 01:08:49;;;;;;;;;;;21.90;92.20;;;;;;5073771;28;20023;-72
2021/07/17 01:11:16;;;;;;;;;;;21.80;92.10;;;;;;5071444;28;20036;-71
2021/07/17 01:13:43;;;;;;;;;;;21.70;92.10;;;;;;5072342;28;19982;-72
2021/07/17 01:16:09;;;;;;;;;;;21.80;92.70;;;;;;5072285;27;19924;-72
2021/07/17 01:18:36;;;;;;;;;;;21.70;92.50;;;;;;5081030;28;19928;-73
2021/07/17 01:21:03;;;;;;;;;;;21.80;92.40;;;;;;5084581;28;20389;-72
2021/07/17 01:23:30;;;;;;;;;;;21.80;92.60;;;;;;5117777;27;20050;-72
2021/07/17 01:25:56;;;;;;;;;;;21.80;92.10;;;;;;5078892;28;19964;-72
2021/07/17 01:28:23;;;;;;;;;;;21.90;92.30;;;;;;5076445;28;20407;-72
2021/07/17 01:30:52;;;;;;;;;;;22.00;92.50;;;;;;5075753;28;19963;-73
2021/07/17 01:33:18;;;;;;;;;;;22.00;92.40;;;;;;5078378;27;19963;-73
2021/07/17 01:35:45;;;;;;;;;;;22.00;91.60;;;;;;5079138;28;20373;-72
2021/07/17 01:38:12;;;;;;;;;;;21.90;92.40;;;;;;5073779;28;19990;-72
2021/07/17 01:40:39;;;;;;;;;;;21.90;91.80;;;;;;5080322;28;19959;-72
2021/07/17 01:43:05;;;;;;;;;;;21.80;91.90;;;;;;5078257;28;19960;-74
2021/07/17 01:45:38;;;;;;;;;;;21.80;92.10;;;;;;5087359;28;19950;-74
2021/07/17 01:48:06;;;;;;;;;;;21.70;92.00;;;;;;5075785;28;19932;-74
2021/07/17 01:50:33;;;;;;;;;;;21.70;92.30;;;;;;5087878;28;20503;-74
2021/07/17 01:53:00;;;;;;;;;;;21.70;92.50;;;;;;5076150;28;20014;-74
2021/07/17 01:55:27;;;;;;;;;;;21.80;92.40;;;;;;5079964;28;21993;-74
2021/07/17 01:57:54;;;;;;;;;;;21.80;91.90;;;;;;5076253;28;19979;-74
2021/07/17 02:00:21;;;;;;;;;;;21.70;92.20;;;;;;5082066;28;19973;-73
2021/07/17 02:02:48;;;;;;;;;;;21.80;92.80;;;;;;5082332;28;19971;-74
2021/07/17 02:05:15;;;;;;;;;;;21.70;92.40;;;;;;5073223;28;19925;-74
2021/07/17 02:07:43;;;;;;;;;;;21.80;92.00;;;;;;5085958;28;20349;-74
2021/07/17 02:10:11;;;;;;;;;;;21.80;92.30;;;;;;5086583;28;19967;-74
2021/07/17 02:12:38;;;;;;;;;;;21.80;92.50;;;;;;5082873;28;19932;-74
2021/07/17 02:15:07;;;;;;;;;;;21.80;92.10;;;;;;5082629;28;19943;-74
2021/07/17 02:17:35;;;;;;;;;;;21.70;92.20;;;;;;5074671;28;20396;-74
2021/07/17 02:20:03;;;;;;;;;;;21.60;92.00;;;;;;5076446;28;20006;-74
2021/07/17 02:22:30;;;;;;;;;;;21.60;92.50;;;;;;5077668;28;20019;-74
2021/07/17 02:24:57;;;;;;;;;;;21.60;92.30;;;;;;5081296;28;19970;-74
2021/07/17 02:27:23;;;;;;;;;;;21.60;92.50;;;;;;5082502;28;19978;-74
2021/07/17 02:29:50;;;;;;;;;;;21.50;92.60;;;;;;5077651;28;20391;-74
2021/07/17 02:32:17;;;;;;;;;;;21.50;92.90;;;;;;5087268;28;20390;-74
2021/07/17 02:34:43;;;;;;;;;;;21.60;92.90;;;;;;5088190;28;19967;-74
2021/07/17 02:37:12;;;;;;;;;;;21.60;92.60;;;;;;5076108;27;20027;-74
2021/07/17 02:39:39;;;;;;;;;;;21.80;93.00;;;;;;5078998;28;19951;-75
2021/07/17 02:42:06;;;;;;;;;;;21.70;92.60;;;;;;5081648;28;20316;-74
2021/07/17 02:44:32;;;;;;;;;;;21.70;92.80;;;;;;5074755;28;19959;-75
2021/07/17 02:46:59;;;;;;;;;;;21.70;92.70;;;;;;5080682;28;20031;-74
2021/07/17 02:49:26;;;;;;;;;;;21.70;92.90;;;;;;5077651;28;20010;-74
2021/07/17 02:51:55;;;;;;;;;;;21.70;92.60;;;;;;5077240;27;19928;-75
2021/07/17 02:54:22;;;;;;;;;;;21.70;92.40;;;;;;5090286;28;20298;-75
2021/07/17 02:56:49;;;;;;;;;;;21.70;92.80;;;;;;5089271;28;19955;-74
2021/07/17 02:59:15;;;;;;;;;;;21.60;92.40;;;;;;5087823;28;19959;-75
2021/07/17 03:01:42;;;;;;;;;;;21.60;92.70;;;;;;5083585;28;19960;-75
2021/07/17 03:04:09;;;;;;;;;;;21.60;92.80;;;;;;5076835;28;19924;-75
2021/07/17 03:06:35;;;;;;;;;;;21.70;93.10;;;;;;5070973;28;19967;-74
2021/07/17 03:09:04;;;;;;;;;;;21.60;92.60;;;;;;5073541;28;20015;-72
2021/07/17 03:11:32;;;;;;;;;;;21.60;93.00;;;;;;5078848;28;19974;-72
2021/07/17 03:13:59;;;;;;;;;;;21.50;92.90;;;;;;5077636;28;19959;-72
2021/07/17 03:16:26;;;;;;;;;;;21.50;93.00;;;;;;5080012;28;19967;-73
2021/07/17 03:18:53;;;;;;;;;;;21.60;92.90;;;;;;5090177;28;19924;-73
2021/07/17 03:21:19;;;;;;;;;;;21.60;92.90;;;;;;5077440;28;19968;-72
2021/07/17 03:23:46;;;;;;;;;;;21.60;92.70;;;;;;5074051;28;19972;-73
2021/07/17 03:26:13;;;;;;;;;;;21.60;92.70;;;;;;5082663;28;19967;-72
2021/07/17 03:28:40;;;;;;;;;;;21.70;92.50;;;;;;5084477;28;19968;-73
2021/07/17 03:31:06;;;;;;;;;;;21.70;93.00;;;;;;5081376;28;19932;-72
2021/07/17 03:33:33;;;;;;;;;;;21.60;92.50;;;;;;5086692;28;19977;-74
2021/07/17 03:36:01;;;;;;;;;;;21.60;92.40;;;;;;5076765;28;19987;-74
2021/07/17 03:38:28;;;;;;;;;;;21.70;92.90;;;;;;5077097;28;19967;-74
2021/07/17 03:40:55;;;;;;;;;;;21.70;92.90;;;;;;5071338;28;20395;-74
2021/07/17 03:43:21;;;;;;;;;;;21.80;92.70;;;;;;5082098;28;19946;-74
2021/07/17 03:45:48;;;;;;;;;;;21.70;92.60;;;;;;5074707;28;19978;-74
2021/07/17 03:48:15;;;;;;;;;;;21.70;92.60;;;;;;5087937;28;19924;-75
2021/07/17 03:50:41;;;;;;;;;;;21.60;92.70;;;;;;5096030;28;20438;-75
2021/07/17 03:53:08;;;;;;;;;;;21.60;92.80;;;;;;5079163;28;19967;-75
2021/07/17 03:55:35;;;;;;;;;;;21.60;92.90;;;;;;5104634;27;20000;-75
2021/07/17 03:58:02;;;;;;;;;;;21.60;93.10;;;;;;5114661;27;19986;-75
2021/07/17 04:00:28;;;;;;;;;;;21.50;93.00;;;;;;5078685;28;19963;-75
2021/07/17 04:02:55;;;;;;;;;;;21.60;92.70;;;;;;5083347;28;19924;-75
2021/07/17 04:05:22;;;;;;;;;;;21.60;93.20;;;;;;5078113;28;19934;-75
2021/07/17 04:07:49;;;;;;;;;;;21.50;93.00;;;;;;5082587;28;19963;-75
2021/07/17 04:10:15;;;;;;;;;;;21.50;93.10;;;;;;5079480;28;20019;-75
2021/07/17 04:12:42;;;;;;;;;;;21.50;92.90;;;;;;5080674;28;20508;-74
2021/07/17 04:15:09;;;;;;;;;;;21.50;93.20;;;;;;5088831;28;19928;-75
2021/07/17 04:17:36;;;;;;;;;;;21.50;93.10;;;;;;5090851;28;19968;-75
2021/07/17 04:20:03;;;;;;;;;;;21.60;93.30;;;;;;5081134;28;20346;-74
2021/07/17 04:22:30;;;;;;;;;;;21.50;93.30;;;;;;5084767;28;20351;-75
2021/07/17 04:24:57;;;;;;;;;;;21.50;93.50;;;;;;5074162;28;20019;-74
2021/07/17 04:27:23;;;;;;;;;;;21.60;93.20;;;;;;5079346;28;19928;-75
2021/07/17 04:29:50;;;;;;;;;;;21.60;93.10;;;;;;5077346;28;20269;-75
2021/07/17 04:32:17;;;;;;;;;;;21.60;93.40;;;;;;5079815;28;20024;-75
2021/07/17 04:34:44;;;;;;;;;;;21.60;93.60;;;;;;5082934;28;19925;-75
2021/07/17 04:37:17;;;;;;;;;;;21.60;93.00;;;;;;5081210;28;20010;-75
2021/07/17 04:39:45;;;;;;;;;;;21.60;93.10;;;;;;5078464;28;20386;-75
2021/07/17 04:42:11;;;;;;;;;;;21.60;93.30;;;;;;5076337;28;19993;-75
2021/07/17 04:44:38;;;;;;;;;;;21.50;93.20;;;;;;5078251;28;19972;-75
2021/07/17 04:47:05;;;;;;;;;;;21.50;93.50;;;;;;5081709;28;20354;-72
2021/07/17 04:49:32;;;;;;;;;;;21.50;93.30;;;;;;5090953;28;21935;-72
2021/07/17 04:51:59;;;;;;;;;;;21.50;93.70;;;;;;5087283;28;19982;-75
2021/07/17 04:54:27;;;;;;;;;;;21.50;93.30;;;;;;5078832;28;20027;-75
2021/07/17 04:56:53;;;;;;;;;;;21.60;93.50;;;;;;5075809;28;20074;-75
2021/07/17 04:59:20;;;;;;;;;;;21.60;93.60;;;;;;5076647;27;19959;-76
2021/07/17 05:01:47;;;;;;;;;;;21.60;93.10;;;;;;5075285;28;19932;-76
2021/07/17 05:04:13;;;;;;;;;;;21.50;93.40;;;;;;5077543;28;19924;-75
2021/07/17 05:06:40;;;;;;;;;;;21.60;93.00;;;;;;5078325;28;20284;-75
2021/07/17 05:09:07;;;;;;;;;;;21.60;93.20;;;;;;5075133;28;20007;-74
2021/07/17 05:11:34;;;;;;;;;;;21.60;93.30;;;;;;5087099;28;20362;-75
2021/07/17 05:14:01;;;;;;;;;;;21.60;93.30;;;;;;5084182;27;19935;-72
2021/07/17 05:16:28;;;;;;;;;;;21.60;93.50;;;;;;5086619;28;19924;-72
2021/07/17 05:18:55;;;;;;;;;;;21.60;93.70;;;;;;5085376;28;20016;-73
2021/07/17 05:21:22;;;;;;;;;;;21.60;93.10;;;;;;5088830;28;20410;-72
2021/07/17 05:23:48;;;;;;;;;;;21.60;93.20;;;;;;5089282;28;20007;-73
2021/07/17 05:26:15;;;;;;;;;;;21.70;93.40;;;;;;5086743;28;19963;-73
2021/07/17 05:28:42;;;;;;;;;;;21.60;93.20;;;;;;5073043;27;20247;-73
2021/07/17 05:31:08;;;;;;;;;;;21.70;93.40;;;;;;5078968;28;20440;-73
2021/07/17 05:33:35;;;;;;;;;;;21.70;93.20;;;;;;5083016;28;19982;-73
2021/07/17 05:36:02;;;;;;;;;;;21.70;93.20;;;;;;5085100;28;19981;-73
2021/07/17 05:38:29;;;;;;;;;;;21.70;93.40;;;;;;5083706;28;19928;-73
2021/07/17 05:41:02;;;;;;;;;;;21.70;93.40;;;;;;5079539;28;19924;-73
2021/07/17 05:43:28;;;;;;;;;;;21.60;93.30;;;;;;5077408;28;19964;-72
2021/07/17 05:45:55;;;;;;;;;;;21.60;93.20;;;;;;5076395;27;20390;-73
2021/07/17 05:48:22;;;;;;;;;;;21.70;93.40;;;;;;5076407;28;19936;-72
2021/07/17 05:50:48;;;;;;;;;;;21.70;93.20;;;;;;5081676;28;20382;-72
2021/07/17 05:53:16;;;;;;;;;;;21.80;93.00;;;;;;5079566;28;19974;-72
2021/07/17 05:55:43;;;;;;;;;;;21.80;92.70;;;;;;5080356;28;19974;-73
2021/07/17 05:58:10;;;;;;;;;;;21.80;93.30;;;;;;5077729;28;20291;-73
2021/07/17 06:00:36;;;;;;;;;;;21.80;92.80;;;;;;5075759;28;19967;-74
2021/07/17 06:03:03;;;;;;;;;;;21.80;92.90;;;;;;5084541;28;20026;-73
2021/07/17 06:05:30;;;;;;;;;;;21.80;92.90;;;;;;5080558;28;19994;-72
2021/07/17 06:07:57;;;;;;;;;;;21.80;93.00;;;;;;5082405;28;19971;-75
2021/07/17 06:10:24;;;;;;;;;;;21.80;92.80;;;;;;5076220;28;20019;-75
2021/07/17 06:12:50;;;;;;;;;;;21.80;92.90;;;;;;5079486;28;19924;-75
2021/07/17 06:15:17;;;;;;;;;;;21.90;92.90;;;;;;5072040;28;19928;-75
2021/07/17 06:17:44;;;;;;;;;;;21.90;92.60;;;;;;5082776;27;19924;-75
2021/07/17 06:20:11;;;;;;;;;;;21.90;92.80;;;;;;5084377;28;19924;-75
2021/07/17 06:22:38;;;;;;;;;;;21.90;92.70;;;;;;5086958;28;19956;-75
2021/07/17 06:25:04;;;;;;;;;;;21.90;92.30;;;;;;5082928;28;19928;-76
2021/07/17 06:27:31;;;;;;;;;;;22.00;92.50;;;;;;5080495;28;19924;-76
2021/07/17 06:29:58;;;;;;;;;;;21.90;92.50;;;;;;5073460;28;20271;-76
2021/07/17 06:32:25;;;;;;;;;;;21.90;92.60;;;;;;5082189;27;19963;-76
2021/07/17 06:34:51;;;;;;;;;;;21.80;92.50;;;;;;5086382;28;19952;-76
2021/07/17 06:37:18;;;;;;;;;;;21.80;92.60;;;;;;5084249;28;20454;-76
2021/07/17 06:39:45;;;;;;;;;;;21.90;92.60;;;;;;5087163;28;20018;-75
2021/07/17 06:42:12;;;;;;;;;;;21.80;92.50;;;;;;5073990;28;19935;-75
2021/07/17 06:44:38;;;;;;;;;;;21.90;92.50;;;;;;5077908;28;20014;-74
2021/07/17 06:47:05;;;;;;;;;;;21.90;92.40;;;;;;5073385;28;19964;-75
2021/07/17 06:49:32;;;;;;;;;;;21.90;92.60;;;;;;5075748;28;19982;-75
2021/07/17 06:51:59;;;;;;;;;;;21.80;92.50;;;;;;5076295;28;19928;-75
2021/07/17 06:54:26;;;;;;;;;;;21.80;92.40;;;;;;5077746;28;19974;-73
2021/07/17 06:56:53;;;;;;;;;;;21.90;92.20;;;;;;5106986;27;19928;-74
2021/07/17 06:59:19;;;;;;;;;;;21.90;92.70;;;;;;5077152;28;20346;-74
2021/07/17 07:01:46;;;;;;;;;;;21.90;92.30;;;;;;5074135;28;19987;-73
2021/07/17 07:04:13;;;;;;;;;;;21.90;92.00;;;;;;5081716;27;19933;-72
2021/07/17 07:06:40;;;;;;;;;;;21.90;92.30;;;;;;5074077;28;19944;-73
2021/07/17 07:09:07;;;;;;;;;;;21.90;92.50;;;;;;5084321;28;19928;-75
2021/07/17 07:11:39;;;;;;;;;;;21.90;92.80;;;;;;5076444;28;20297;-75
2021/07/17 07:14:06;;;;;;;;;;;22.00;92.40;;;;;;5108722;27;19928;-74
2021/07/17 07:16:33;;;;;;;;;;;22.00;92.50;;;;;;5074417;28;19925;-76
2021/07/17 07:19:00;;;;;;;;;;;21.90;92.40;;;;;;5078203;28;19931;-76
2021/07/17 07:21:26;;;;;;;;;;;21.90;92.20;;;;;;5088043;27;19963;-76
2021/07/17 07:23:53;;;;;;;;;;;21.90;92.30;;;;;;5118451;27;19977;-76
2021/07/17 07:26:20;;;;;;;;;;;21.90;92.30;;;;;;5076492;28;19978;-76
2021/07/17 07:28:46;;;;;;;;;;;21.90;92.30;;;;;;5077474;28;20307;-74
2021/07/17 07:31:13;;;;;;;;;;;21.90;92.40;;;;;;5080566;28;19963;-75
2021/07/17 07:33:40;;;;;;;;;;;22.00;92.40;;;;;;5080491;28;19924;-75
2021/07/17 07:36:07;;;;;;;;;;;22.00;92.10;;;;;;5080152;28;19946;-76
2021/07/17 07:38:33;;;;;;;;;;;21.90;92.30;;;;;;5077040;28;19982;-73
2021/07/17 07:41:00;;;;;;;;;;;22.00;92.50;;;;;;5082168;28;20014;-73
2021/07/17 07:43:27;;;;;;;;;;;22.00;92.20;;;;;;5078173;28;19998;-73
2021/07/17 07:45:54;;;;;;;;;;;22.00;92.20;;;;;;5084775;28;20307;-73
2021/07/17 07:48:20;;;;;;;;;;;22.00;92.10;;;;;;5080199;28;20413;-73
2021/07/17 07:50:47;;;;;;;;;;;21.90;92.30;;;;;;5082087;28;19928;-73
2021/07/17 07:53:14;;;;;;;;;;;22.00;92.10;;;;;;5080142;27;20019;-73
2021/07/17 07:55:41;;;;;;;;;;;21.90;92.30;;;;;;5085975;28;19975;-73
2021/07/17 07:58:07;;;;;;;;;;;21.90;92.10;;;;;;5084667;28;19924;-73
2021/07/17 08:00:34;;;;;;;;;;;22.00;92.30;;;;;;5085923;28;19931;-72
2021/07/17 08:03:01;;;;;;;;;;;22.00;92.30;;;;;;5086107;28;20275;-72
2021/07/17 08:05:28;;;;;;;;;;;22.00;92.20;;;;;;5090603;28;19935;-73
2021/07/17 08:07:55;;;;;;;;;;;22.00;92.00;;;;;;5085716;27;19935;-72
2021/07/17 08:10:22;;;;;;;;;;;22.00;92.20;;;;;;5078207;28;19924;-73
2021/07/17 08:12:49;;;;;;;;;;;22.00;92.00;;;;;;5077476;28;20253;-73
2021/07/17 08:15:16;;;;;;;;;;;22.00;92.20;;;;;;5079101;28;20027;-73
2021/07/17 08:17:43;;;;;;;;;;;22.10;92.30;;;;;;5080796;28;19924;-74
2021/07/17 08:20:10;;;;;;;;;;;22.00;92.10;;;;;;5075250;28;19956;-72
2021/07/17 08:22:37;;;;;;;;;;;22.00;92.10;;;;;;5079649;28;20391;-71
2021/07/17 08:25:08;;;;;;;;;;;22.00;92.00;;;;;;5089339;28;19977;-75
2021/07/17 08:27:35;;;;;;;;;;;22.00;92.00;;;;;;5089300;28;20445;-73
2021/07/17 08:30:02;;;;;;;;;;;22.00;92.10;;;;;;5085107;28;19928;-73
2021/07/17 08:32:29;;;;;;;;;;;22.00;91.90;;;;;;5083679;28;19924;-73
2021/07/17 08:34:56;;;;;;;;;;;22.00;92.00;;;;;;5079334;28;20252;-73
2021/07/17 08:37:23;;;;;;;;;;;22.00;92.10;;;;;;5077715;28;20016;-72
2021/07/17 08:39:49;;;;;;;;;;;22.00;92.10;;;;;;5078776;28;19924;-72
2021/07/17 08:42:17;;;;;;;;;;;21.90;92.00;;;;;;5082321;28;19959;-72
2021/07/17 08:44:49;;;;;;;;;;;22.00;91.90;;;;;;5075528;28;20038;-71
2021/07/17 08:47:16;;;;;;;;;;;22.00;92.10;;;;;;5086095;28;19985;-72
2021/07/17 08:49:46;;;;;;;;;;;22.00;92.30;;;;;;5074839;28;19928;-72
2021/07/17 08:52:13;;;;;;;;;;;22.00;92.40;;;;;;5080652;28;20362;-71
2021/07/17 08:54:40;;;;;;;;;;;22.10;92.50;;;;;;5078292;27;19959;-74
2021/07/17 08:57:11;;;;;;;;;;;22.10;93.10;;;;;;5079446;28;19963;-74
2021/07/17 08:59:38;;;;;;;;;;;22.10;93.10;;;;;;5106266;28;19924;-73
2021/07/17 09:02:05;;;;;;;;;;;22.10;93.10;;;;;;5081504;28;19978;-74
2021/07/17 09:04:33;;;;;;;;;;;22.20;92.80;;;;;;5077231;28;20299;-73
2021/07/17 09:07:00;;;;;;;;;;;22.20;92.30;;;;;;5079538;28;19924;-72
2021/07/17 09:09:28;;;;;;;;;;;22.10;92.00;;;;;;5079501;28;19975;-73
2021/07/17 09:11:54;;;;;;;;;;;22.20;92.60;;;;;;5075174;28;19932;-73
2021/07/17 09:14:35;;;;;;;;;;;22.20;92.20;;;;;;5073955;28;19925;-75
2021/07/17 09:17:02;;;;;;;;;;;22.20;92.20;;;;;;5076725;28;20881;-72
2021/07/17 09:19:29;;;;;;;;;;;22.20;92.70;;;;;;5079602;28;19928;-72
2021/07/17 09:21:56;;;;;;;;;;;22.20;93.00;;;;;;5078357;28;20034;-72
2021/07/17 09:24:23;;;;;;;;;;;22.20;92.40;;;;;;5011205;28;1919115;-73
2021/07/17 09:26:54;;;;;;;;;;;22.30;93.20;;;;;;5076199;28;20026;-73
2021/07/17 09:29:20;;;;;;;;;;;22.30;92.90;;;;;;5079310;28;19970;-73
2021/07/17 09:31:57;;;;;;;;;;;22.30;93.30;;;;;;5074688;28;19971;-73
2021/07/17 09:34:27;;;;;;;;;;;22.30;92.20;;;;;;5084169;28;20027;-72
2021/07/17 09:37:04;;;;;;;;;;;22.30;92.70;;;;;;5080556;28;19952;-73
2021/07/17 09:39:35;;;;;;;;;;;22.30;91.90;;;;;;5083074;28;20015;-75
2021/07/17 09:42:05;;;;;;;;;;;22.30;92.60;;;;;;5076275;27;20019;-76
2021/07/17 09:44:32;;;;;;;;;;;22.40;92.50;;;;;;5072640;28;19925;-76
2021/07/17 09:47:01;;;;;;;;;;;22.40;92.60;;;;;;5075840;28;19936;-76
2021/07/17 09:49:28;;;;;;;;;;;22.40;92.50;;;;;;5077857;28;20011;-75
2021/07/17 09:52:13;;;;;;;;;;;22.40;92.50;;;;;;5076096;28;19932;-75
2021/07/17 09:55:00;;;;;;;;;;;22.50;92.30;;;;;;5081004;28;20444;-76
2021/07/17 09:57:30;;;;;;;;;;;22.40;92.00;;;;;;5077434;28;19989;-77
2021/07/17 10:00:17;;;;;;;;;;;22.40;92.60;;;;;;5077082;28;19924;-76
2021/07/17 10:02:52;;;;;;;;;;;22.40;92.30;;;;;;5083696;28;19932;-76
2021/07/17 10:05:19;;;;;;;;;;;22.40;92.20;;;;;;5084448;28;19925;-77
2021/07/17 10:07:46;;;;;;;;;;;22.40;91.80;;;;;;5084385;28;19924;-76
2021/07/17 10:10:13;;;;;;;;;;;22.40;92.10;;;;;;5076592;28;19923;-76
2021/07/17 10:12:43;;;;;;;;;;;22.40;92.00;;;;;;5114588;27;20014;-76
2021/07/17 10:15:13;;;;;;;;;;;22.40;91.30;;;;;;5077140;28;19974;-77
2021/07/17 10:17:44;;;;;;;;;;;22.40;91.70;;;;;;5080901;28;19924;-76
2021/07/17 10:20:13;;;;;;;;;;;22.40;91.70;;;;;;5087797;28;20331;-77
2021/07/17 10:22:40;;;;;;;;;;;22.50;91.80;;;;;;5078485;28;20016;-76
2021/07/17 10:25:08;;;;;;;;;;;22.50;91.90;;;;;;5080283;28;19929;-77
2021/07/17 10:27:37;;;;;;;;;;;22.50;91.70;;;;;;5079347;28;19950;-76
2021/07/17 10:30:09;;;;;;;;;;;22.50;91.70;;;;;;5076815;28;19974;-76
2021/07/17 10:32:51;;;;;;;;;;;22.50;91.90;;;;;;5085857;28;19938;-77
2021/07/17 10:35:18;;;;;;;;;;;22.50;92.00;;;;;;5082852;28;19936;-77
2021/07/17 10:37:47;;;;;;;;;;;22.60;92.10;;;;;;5082836;28;20267;-77
2021/07/17 10:40:17;;;;;;;;;;;22.60;91.70;;;;;;5081584;28;20307;-77
2021/07/17 10:42:45;;;;;;;;;;;22.60;91.70;;;;;;5078789;28;20002;-73
2021/07/17 10:45:30;;;;;;;;;;;22.60;91.90;;;;;;5081141;28;20026;-70
2021/07/17 10:47:57;;;;;;;;;;;22.60;91.50;;;;;;5076234;28;19974;-72
2021/07/17 10:50:31;;;;;;;;;;;22.60;91.60;;;;;;5084768;28;20524;-72
2021/07/17 10:52:58;;;;;;;;;;;22.70;91.20;;;;;;5080338;28;20320;-78
2021/07/17 10:55:24;;;;;;;;;;;22.70;90.80;;;;;;5082318;28;20027;-76
2021/07/17 10:57:51;;;;;;;;;;;22.70;91.40;;;;;;5082980;28;19960;-71
2021/07/17 11:00:36;;;;;;;;;;;22.70;91.50;;;;;;5088498;28;19951;-70
2021/07/17 11:03:21;;;;;;;;;;;22.70;91.30;;;;;;5076074;28;19939;-79
2021/07/17 11:05:48;;;;;;;;;;;22.80;92.50;;;;;;5080189;28;19940;-78
2021/07/17 11:08:32;;;;;;;;;;;22.70;92.60;;;;;;5082844;28;19970;-75
2021/07/17 11:10:59;;;;;;;;;;;22.70;92.90;;;;;;5080626;28;19930;-74
2021/07/17 11:13:34;;;;;;;;;;;22.70;92.20;;;;;;5078002;28;22878;-79
2021/07/17 11:16:02;;;;;;;;;;;22.70;92.60;;;;;;5077896;28;19932;-76
2021/07/17 11:18:31;;;;;;;;;;;22.70;92.10;;;;;;5081975;28;19931;-75
2021/07/17 11:20:59;;;;;;;;;;;22.70;91.80;;;;;;5066425;28;19955;-78
2021/07/17 11:23:35;;;;;;;;;;;22.80;92.00;;;;;;5090024;28;19965;-77
2021/07/17 11:26:06;;;;;;;;;;;22.90;91.60;;;;;;5090399;28;19968;-79
2021/07/17 11:29:02;;;;;;;;;;;22.90;91.70;;;;;;5088625;28;19932;-78
2021/07/17 11:31:29;;;;;;;;;;;22.90;91.60;;;;;;5090943;28;19928;-78
2021/07/17 11:34:13;;;;;;;;;;;23.00;91.70;;;;;;5088696;28;19953;-78
2021/07/17 11:36:43;;;;;;;;;;;23.00;91.10;;;;;;5089871;28;19936;-77
2021/07/17 11:39:12;;;;;;;;;;;23.00;91.20;;;;;;5089318;28;19943;-77
2021/07/17 11:41:39;;;;;;;;;;;23.00;91.00;;;;;;5088927;28;20213;-78
2021/07/17 11:44:08;;;;;;;;;;;23.10;90.50;;;;;;5070485;28;19932;-79
2021/07/17 11:46:51;;;;;;;;;;;23.10;91.00;;;;;;5082527;28;20358;-77
2021/07/17 11:49:18;;;;;;;;;;;23.10;90.90;;;;;;5073681;28;21186;-77
2021/07/17 11:51:49;;;;;;;;;;;23.10;90.80;;;;;;5075523;28;19932;-76
2021/07/17 11:54:27;;;;;;;;;;;23.20;90.80;;;;;;5077049;28;19939;-77
2021/07/17 11:57:02;;;;;;;;;;;23.10;90.80;;;;;;5075530;28;19943;-77
2021/07/17 11:59:29;;;;;;;;;;;23.10;90.80;;;;;;5075462;28;20331;-76
2021/07/17 12:02:10;;;;;;;;;;;23.00;91.00;;;;;;5076515;28;19931;-79
2021/07/17 12:04:39;;;;;;;;;;;23.10;91.00;;;;;;5074518;28;19928;-78
2021/07/17 12:07:08;;;;;;;;;;;23.10;91.00;;;;;;5076580;28;20302;-78
2021/07/17 12:09:38;;;;;;;;;;;23.10;90.90;;;;;;5077963;28;19942;-80
2021/07/17 12:12:14;;;;;;;;;;;23.10;90.50;;;;;;5075188;28;19938;-79
2021/07/17 12:14:41;;;;;;;;;;;23.20;90.60;;;;;;5075507;28;19939;-79
2021/07/17 12:17:08;;;;;;;;;;;23.20;90.70;;;;;;5074924;27;19941;-79
2021/07/17 12:19:36;;;;;;;;;;;23.20;90.70;;;;;;5077365;28;19932;-78
2021/07/17 12:22:03;;;;;;;;;;;23.20;90.60;;;;;;5077317;28;19932;-79
2021/07/17 12:24:35;;;;;;;;;;;23.20;90.80;;;;;;5082163;28;19981;-78
2021/07/17 12:27:03;;;;;;;;;;;23.20;90.80;;;;;;5082858;28;19978;-76
2021/07/17 12:29:30;;;;;;;;;;;23.20;90.90;;;;;;5078540;28;19932;-79
2021/07/17 12:31:58;;;;;;;;;;;23.10;91.00;;;;;;5077759;27;20405;-74
2021/07/17 12:34:26;;;;;;;;;;;23.10;91.10;;;;;;5081179;28;19943;-72
2021/07/17 12:36:53;;;;;;;;;;;23.10;91.20;;;;;;5078479;28;19973;-73
2021/07/17 12:39:22;;;;;;;;;;;23.30;90.60;;;;;;5080383;28;20067;-72
2021/07/17 12:41:53;;;;;;;;;;;23.30;90.90;;;;;;5084986;28;19932;-72
2021/07/17 12:44:20;;;;;;;;;;;23.40;90.80;;;;;;5081426;28;19932;-72
2021/07/17 12:46:48;;;;;;;;;;;24.50;87.70;;;;;;5080350;28;20005;-74
2021/07/17 12:49:16;;;;;;;;;;;24.50;86.70;;;;;;5071429;28;20378;-72
2021/07/17 12:51:49;;;;;;;;;;;24.20;88.50;;;;;;5071225;28;19924;-72
2021/07/17 12:54:17;;;;;;;;;;;24.50;88.00;;;;;;5072075;28;20003;-71
2021/07/17 12:56:51;;;;;;;;;;;24.40;87.50;;;;;;5073329;28;20056;-72
2021/07/17 12:59:28;;;;;;;;;;;24.20;88.00;;;;;;5071583;28;20371;-71
2021/07/17 13:01:56;;;;;;;;;;;24.10;88.70;;;;;;5073434;28;19999;-72
2021/07/17 13:04:25;;;;;;;;;;;24.10;88.70;;;;;;5072212;28;19935;-71
2021/07/17 13:06:55;;;;;;;;;;;24.00;88.70;;;;;;5071486;28;19970;-72
2021/07/17 13:09:32;;;;;;;;;;;23.90;89.30;;;;;;5074099;28;20315;-71
2021/07/17 13:11:59;;;;;;;;;;;23.80;89.40;;;;;;5071698;28;19925;-71
2021/07/17 13:14:27;;;;;;;;;;;23.80;89.70;;;;;;5072337;28;19928;-71
2021/07/17 13:16:53;;;;;;;;;;;23.70;90.00;;;;;;5072496;28;19983;-72
2021/07/17 13:19:21;;;;;;;;;;;23.70;90.20;;;;;;5070326;28;20356;-71
2021/07/17 13:21:48;;;;;;;;;;;23.70;90.20;;;;;;5076067;28;19987;-71
2021/07/17 13:24:16;;;;;;;;;;;23.70;90.10;;;;;;5081065;28;20011;-72
2021/07/17 13:26:50;;;;;;;;;;;23.60;90.30;;;;;;5070655;28;20371;-72
2021/07/17 13:29:22;;;;;;;;;;;23.60;90.30;;;;;;5068581;28;20436;-72
2021/07/17 13:32:00;;;;;;;;;;;23.60;90.50;;;;;;5080783;28;19934;-72
2021/07/17 13:34:35;;;;;;;;;;;23.60;90.50;;;;;;5080486;28;20367;-73
2021/07/17 13:37:07;;;;;;;;;;;23.50;90.70;;;;;;5071733;28;19931;-72
2021/07/17 13:39:52;;;;;;;;;;;23.50;90.70;;;;;;5071163;28;19928;-73
2021/07/17 13:42:20;;;;;;;;;;;23.60;90.70;;;;;;5077851;28;20039;-72
2021/07/17 13:44:48;;;;;;;;;;;23.60;90.70;;;;;;5071409;28;19988;-72
2021/07/17 13:47:16;;;;;;;;;;;23.60;90.70;;;;;;5070305;28;20810;-73
2021/07/17 13:49:45;;;;;;;;;;;23.70;90.60;;;;;;5070494;28;19929;-71
2021/07/17 13:52:34;;;;;;;;;;;23.70;90.60;;;;;;5071273;28;20114;-71
2021/07/17 13:55:03;;;;;;;;;;;23.70;90.60;;;;;;5070334;28;20387;-71
2021/07/17 13:57:41;;;;;;;;;;;23.70;90.70;;;;;;5077698;28;20019;-71
2021/07/17 14:00:09;;;;;;;;;;;23.70;90.70;;;;;;5069097;28;19924;-71
2021/07/17 14:02:52;;;;;;;;;;;23.60;90.70;;;;;;5071992;28;20027;-72
2021/07/17 14:05:18;;;;;;;;;;;23.60;90.90;;;;;;5079534;28;20368;-72
2021/07/17 14:07:45;;;;;;;;;;;23.60;90.80;;;;;;5077536;28;19929;-71
2021/07/17 14:10:12;;;;;;;;;;;23.60;90.70;;;;;;5071326;28;19937;-70
2021/07/17 14:12:39;;;;;;;;;;;23.60;90.90;;;;;;5076921;28;19935;-71
2021/07/17 14:15:06;;;;;;;;;;;23.70;90.90;;;;;;5077423;28;19939;-71
2021/07/17 14:17:33;;;;;;;;;;;23.60;90.90;;;;;;5073547;28;20501;-72
2021/07/17 14:20:00;;;;;;;;;;;23.60;91.00;;;;;;5073482;28;21185;-72
2021/07/17 14:22:27;;;;;;;;;;;23.60;91.00;;;;;;5072223;27;20019;-72